Time;durP1;ratioP1;P1;durP2;ratioP2;P2;SDS_P1;SDS_P2;PMS_P1;PMS_P2;Temp;Humidity;BMP_temperature;BMP_pressure;BME280_temperature;BME280_humidity;BME280_pressure;Samples;Min_cycle;Max_cycle;Signal;HPM_P1;HPM_P2
2023/01/16 00:01:37;;;;;;;9.02;4.15;;;;;;;1.31;100.00;98081.88;5046888;28;20044;-78
2023/01/16 00:04:06;;;;;;;10.00;3.25;;;;;;;1.29;100.00;98083.78;5041651;28;20052;-79
2023/01/16 00:06:35;;;;;;;15.25;5.15;;;;;;;1.24;100.00;98086.03;5063030;28;20035;-77
2023/01/16 00:09:04;;;;;;;11.23;4.20;;;;;;;1.23;100.00;98094.78;5033653;28;20032;-77
2023/01/16 00:11:32;;;;;;;8.85;4.30;;;;;;;1.16;100.00;98098.94;5048685;28;20028;-78
2023/01/16 00:14:00;;;;;;;13.32;4.68;;;;;;;1.13;100.00;98088.81;5068488;28;20421;-78
2023/01/16 00:16:28;;;;;;;11.43;4.47;;;;;;;1.12;100.00;98100.97;5051762;28;20084;-78
2023/01/16 00:18:57;;;;;;;9.63;4.97;;;;;;;1.09;100.00;98091.69;5052992;28;20085;-78
2023/01/16 00:21:28;;;;;;;14.68;6.85;;;;;;;1.07;100.00;98093.59;5036668;28;20112;-78
2023/01/16 00:23:58;;;;;;;9.52;3.90;;;;;;;1.10;100.00;98088.13;5038421;28;20026;-78
2023/01/16 00:26:27;;;;;;;16.88;4.30;;;;;;;1.10;100.00;98092.50;5056674;28;20033;-77
2023/01/16 00:28:56;;;;;;;9.40;4.88;;;;;;;1.12;100.00;98100.97;5030932;28;20452;-77
2023/01/16 00:31:25;;;;;;;9.18;3.72;;;;;;;1.14;100.00;98100.84;4994357;28;20060;-79
2023/01/16 00:33:55;;;;;;;11.80;4.70;;;;;;;1.18;100.00;98099.63;5033629;28;20032;-78
2023/01/16 00:36:24;;;;;;;8.80;4.10;;;;;;;1.21;100.00;98101.94;5029579;28;20041;-78
2023/01/16 00:38:55;;;;;;;11.95;4.15;;;;;;;1.22;100.00;98109.59;5043889;28;20032;-79
2023/01/16 00:41:23;;;;;;;9.90;4.10;;;;;;;1.22;100.00;98113.97;5054600;28;20077;-77
2023/01/16 00:43:53;;;;;;;10.52;4.50;;;;;;;1.26;100.00;98107.50;5050280;28;20036;-78
2023/01/16 00:46:21;;;;;;;9.50;4.43;;;;;;;1.27;100.00;98103.97;5068128;28;20459;-78
2023/01/16 00:48:50;;;;;;;8.15;3.55;;;;;;;1.28;100.00;98104.75;5068653;28;20071;-78
2023/01/16 00:51:18;;;;;;;9.38;3.50;;;;;;;1.29;100.00;98109.81;5047919;28;20052;-78
2023/01/16 00:53:47;;;;;;;8.60;3.75;;;;;;;1.30;100.00;98106.28;5067711;28;20038;-78
2023/01/16 00:56:16;;;;;;;6.60;3.33;;;;;;;1.27;100.00;98109.16;5053781;28;20439;-78
2023/01/16 00:58:44;;;;;;;10.63;3.80;;;;;;;1.24;100.00;98102.44;5068929;28;20032;-78
2023/01/16 01:01:14;;;;;;;8.55;3.72;;;;;;;1.25;100.00;98103.28;5047664;28;20028;-78
2023/01/16 01:03:44;;;;;;;7.68;3.65;;;;;;;1.25;100.00;98100.66;5052261;28;20068;-78
2023/01/16 01:06:13;;;;;;;7.72;3.20;;;;;;;1.27;100.00;98097.94;5051306;28;20106;-79
2023/01/16 01:08:43;;;;;;;16.80;4.18;;;;;;;1.30;100.00;98101.06;5032596;28;20201;-78
2023/01/16 01:11:14;;;;;;;7.97;3.28;;;;;;;1.28;100.00;98103.00;5022634;28;20501;-78
2023/01/16 01:13:42;;;;;;;10.40;3.95;;;;;;;1.28;100.00;98103.00;5069024;28;20562;-78
2023/01/16 01:16:12;;;;;;;5.95;3.72;;;;;;;1.30;100.00;98098.47;5049045;28;20082;-79
2023/01/16 01:18:41;;;;;;;11.15;4.15;;;;;;;1.28;100.00;98104.75;5041474;28;20066;-79
2023/01/16 01:21:09;;;;;;;12.43;3.90;;;;;;;1.25;100.00;98098.06;4999133;28;20485;-77
2023/01/16 01:23:37;;;;;;;11.07;3.72;;;;;;;1.23;100.00;98108.63;5025690;28;20140;-78
2023/01/16 01:26:10;;;;;;;18.33;5.30;;;;;;;1.24;100.00;98102.44;5033966;28;20035;-79
2023/01/16 01:28:40;;;;;;;10.10;4.15;;;;;;;1.25;100.00;98105.88;5023781;28;20033;-78
2023/01/16 01:31:11;;;;;;;12.98;4.90;;;;;;;1.24;100.00;98110.25;5050999;28;20024;-78
2023/01/16 01:33:39;;;;;;;19.95;6.10;;;;;;;1.18;100.00;98115.22;5025854;28;20374;-78
2023/01/16 01:36:10;;;;;;;10.95;5.15;;;;;;;1.14;100.00;98111.25;5016586;28;20048;-77
2023/01/16 01:38:39;;;;;;;12.57;5.65;;;;;;;1.10;100.00;98121.09;5027441;28;20024;-77
2023/01/16 01:41:13;;;;;;;9.90;4.90;;;;;;;1.09;100.00;98116.88;5040166;28;20029;-78
2023/01/16 01:43:45;;;;;;;14.55;5.13;;;;;;;1.07;100.00;98122.22;5048643;28;20041;-79
2023/01/16 01:46:22;;;;;;;12.02;4.63;;;;;;;1.07;100.00;98116.19;5004849;28;20128;-78
2023/01/16 01:48:58;;;;;;;18.92;4.65;;;;;;;1.04;100.00;98121.69;5027238;28;20495;-78
2023/01/16 01:51:35;;;;;;;12.88;5.43;;;;;;;1.02;100.00;98118.41;5021129;28;20567;-78
2023/01/16 01:54:10;;;;;;;;;;;;;;;1.00;100.00;98121.16;5044756;28;20025;-78
2023/01/16 01:57:00;;;;;;;9.05;3.97;;;;;;;1.07;100.00;98111.81;5040608;28;20424;-78
2023/01/16 01:59:34;;;;;;;10.38;4.00;;;;;;;1.11;100.00;98113.16;5003014;28;20051;-78
2023/01/16 02:02:06;;;;;;;11.73;3.90;;;;;;;1.18;100.00;98125.63;5043202;28;20052;-78
2023/01/16 02:04:36;;;;;;;10.18;4.18;;;;;;;1.19;100.00;98125.50;5033489;28;20041;-79
2023/01/16 02:07:10;;;;;;;11.48;4.15;;;;;;;1.24;100.00;98133.69;5021930;28;20077;-78
2023/01/16 02:09:40;;;;;;;10.90;4.78;;;;;;;1.27;100.00;98134.34;5036221;28;20049;-79
2023/01/16 02:12:17;;;;;;;10.60;4.05;;;;;;;1.29;100.00;98141.06;5035471;28;20061;-79
2023/01/16 02:14:49;;;;;;;16.08;4.85;;;;;;;1.30;100.00;98142.72;5021448;28;20081;-78
2023/01/16 02:20:18;;;;;;;8.85;3.80;;;;;;;1.27;100.00;98143.00;5030941;28;20378;-76
2023/01/16 02:22:47;;;;;;;9.45;3.55;;;;;;;1.26;100.00;98151.75;5041194;28;20060;-76
2023/01/16 02:25:47;;;;;;;9.65;3.70;;;;;;;1.30;100.00;98149.69;5039196;28;20078;-78
2023/01/16 02:28:18;;;;;;;7.60;3.40;;;;;;;1.31;100.00;98153.94;5060267;28;20126;-78
2023/01/16 02:31:26;;;;;;;11.07;4.30;;;;;;;1.30;100.00;98147.91;5027703;28;20041;-78
2023/01/16 02:34:33;;;;;;;10.02;4.22;;;;;;;1.31;100.00;98139.13;5003172;28;20198;-78
2023/01/16 02:37:09;;;;;;;;;;;;;;;1.26;100.00;98146.53;5048902;28;20469;-77
2023/01/16 02:39:45;;;;;;;10.65;3.97;;;;;;;1.30;100.00;98145.31;5056050;28;20348;-77
2023/01/16 02:42:24;;;;;;;7.13;3.38;;;;;;;1.31;100.00;98159.13;5032605;28;20104;-77
2023/01/16 02:45:18;;;;;;;8.32;3.33;;;;;;;1.32;100.00;98153.78;5043603;28;20350;-77
2023/01/16 02:47:51;;;;;;;9.98;3.60;;;;;;;1.36;100.00;98157.75;5037256;28;20029;-77
2023/01/16 02:50:47;;;;;;;9.18;3.20;;;;;;;1.40;100.00;98160.88;5030511;28;20037;-77
2023/01/16 02:53:22;;;;;;;11.18;4.20;;;;;;;1.42;100.00;98164.16;5041608;28;20430;-77
2023/01/16 02:56:02;;;;;;;6.75;4.13;;;;;;;1.44;100.00;98164.84;5041597;28;20043;-77
2023/01/16 02:58:33;;;;;;;12.55;4.07;;;;;;;1.45;100.00;98169.09;5055431;28;20087;-77
2023/01/16 03:01:03;;;;;;;8.88;4.18;;;;;;;1.47;100.00;98164.56;5049672;28;20034;-77
2023/01/16 03:03:54;;;;;;;9.45;4.60;;;;;;;1.49;100.00;98154.03;5057936;28;20037;-77
2023/01/16 03:06:45;;;;;;;13.63;5.65;;;;;;;1.52;100.00;98163.31;5066842;28;20032;-77
2023/01/16 03:09:40;;;;;;;7.88;4.35;;;;;;;1.54;100.00;98164.84;5046677;28;20061;-77
2023/01/16 03:12:29;;;;;;;12.32;4.30;;;;;;;1.56;100.00;98157.69;5070277;28;20024;-77
2023/01/16 03:15:12;;;;;;;10.18;3.80;;;;;;;1.58;100.00;98160.97;5024053;28;20513;-77
2023/01/16 03:18:16;;;;;;;7.68;3.83;;;;;;;1.61;100.00;98162.44;5063608;28;20051;-77
2023/01/16 03:20:54;;;;;;;6.40;3.85;;;;;;;1.64;100.00;98167.38;5056407;28;20036;-77
2023/01/16 03:23:26;;;;;;;8.63;3.70;;;;;;;1.60;100.00;98179.88;5063825;28;20450;-77
2023/01/16 03:26:33;;;;;;;12.40;4.30;;;;;;;1.63;100.00;98170.94;5066279;28;20071;-76
2023/01/16 03:29:09;;;;;;;8.40;3.50;;;;;;;1.63;100.00;98168.34;4979429;28;20114;-76
2023/01/16 03:31:39;;;;;;;;;;;;;;;1.61;100.00;98170.25;5044499;28;20040;-77
2023/01/16 03:34:21;;;;;;;6.88;3.40;;;;;;;1.61;100.00;98176.31;5037913;28;19959;-77
2023/01/16 03:36:56;;;;;;;4.85;2.83;;;;;;;1.60;100.00;98172.06;5046311;28;20036;-77
2023/01/16 03:39:29;;;;;;;;;;;;;;;1.55;100.00;98182.09;5063802;28;20496;-77
2023/01/16 03:42:03;;;;;;;2.80;1.60;;;;;;;1.54;100.00;98190.03;5046132;28;19960;-77
2023/01/16 03:44:47;;;;;;;4.93;1.88;;;;;;;1.40;100.00;98181.72;5052750;28;20361;-77
2023/01/16 03:47:40;;;;;;;3.05;2.53;;;;;;;1.34;100.00;98187.47;5070111;28;20139;-77
2023/01/16 03:50:12;;;;;;;4.45;2.13;;;;;;;1.29;100.00;98192.31;5055665;28;20029;-77
2023/01/16 03:52:45;;;;;;;3.03;1.95;;;;;;;1.21;100.00;98198.22;5071653;28;20033;-76
2023/01/16 03:55:14;;;;;;;3.53;2.35;;;;;;;1.15;100.00;98198.78;5049027;28;20042;-77
2023/01/16 03:57:51;;;;;;;5.78;2.53;;;;;;;1.11;100.00;98200.81;5071216;28;20032;-77
2023/01/16 04:00:21;;;;;;;3.42;2.35;;;;;;;1.03;100.00;98209.31;5069101;28;20087;-77
2023/01/16 04:02:57;;;;;;;7.00;2.67;;;;;;;0.99;100.00;98213.16;5046026;28;20039;-77
2023/01/16 04:05:28;;;;;;;;;;;;;;;0.90;100.00;98220.00;5050427;28;20433;-77
2023/01/16 04:08:17;;;;;;;4.95;3.13;;;;;;;0.91;100.00;98226.84;5044561;28;20361;-77
2023/01/16 04:10:48;;;;;;;4.82;2.97;;;;;;;0.90;100.00;98219.19;5048077;28;20032;-77
2023/01/16 04:13:24;;;;;;;4.78;3.20;;;;;;;0.90;100.00;98233.00;5033013;28;20028;-77
2023/01/16 04:15:56;;;;;;;7.78;3.60;;;;;;;0.92;100.00;98223.31;5060293;28;20029;-77
2023/01/16 04:18:29;;;;;;;7.10;2.67;;;;;;;0.91;100.00;98218.25;5037760;28;20049;-77
2023/01/16 04:20:59;;;;;;;8.57;3.03;;;;;;;0.91;100.00;98226.84;5040537;28;20033;-77
2023/01/16 04:23:29;;;;;;;4.15;3.00;;;;;;;0.92;100.00;98220.72;5041809;28;20551;-77
2023/01/16 04:25:59;;;;;;;4.57;2.95;;;;;;;0.95;100.00;98215.22;5063989;28;20035;-77
2023/01/16 04:28:29;;;;;;;4.55;2.28;;;;;;;0.95;100.00;98217.00;5062775;28;20036;-77
2023/01/16 04:30:58;;;;;;;6.38;3.17;;;;;;;0.91;100.00;98223.44;5049982;28;20123;-77
2023/01/16 04:33:27;;;;;;;2.58;2.28;;;;;;;0.88;100.00;98224.53;5045367;28;20514;-77
2023/01/16 04:35:55;;;;;;;4.95;2.75;;;;;;;0.81;100.00;98220.84;5032736;28;20417;-77
2023/01/16 04:38:25;;;;;;;5.00;3.00;;;;;;;0.79;100.00;98231.38;5058227;28;20404;-77
2023/01/16 04:40:55;;;;;;;4.47;2.63;;;;;;;0.72;100.00;98228.50;5032512;28;20392;-77
2023/01/16 04:43:25;;;;;;;3.90;2.35;;;;;;;0.69;100.00;98227.94;5031225;28;20408;-77
2023/01/16 04:45:54;;;;;;;2.45;2.05;;;;;;;0.66;100.00;98231.63;5068691;28;20116;-77
2023/01/16 04:48:24;;;;;;;4.32;1.80;;;;;;;0.66;100.00;98225.59;5069880;28;20032;-77
2023/01/16 04:50:54;;;;;;;4.30;2.20;;;;;;;0.61;100.00;98223.41;5060303;28;20024;-77
2023/01/16 04:53:24;;;;;;;2.20;1.73;;;;;;;0.59;100.00;98212.34;5046017;28;20029;-77
2023/01/16 04:55:53;;;;;;;1.98;1.55;;;;;;;0.64;100.00;98224.94;5051113;28;20036;-78
2023/01/16 04:58:22;;;;;;;3.70;1.58;;;;;;;0.64;100.00;98227.53;5066560;28;20044;-77
2023/01/16 05:00:50;;;;;;;1.85;1.58;;;;;;;0.69;100.00;98240.94;5028695;28;20546;-78
2023/01/16 05:03:18;;;;;;;5.75;1.38;;;;;;;0.74;100.00;98244.78;5054790;28;20405;-77
2023/01/16 05:05:46;;;;;;;4.10;1.38;;;;;;;0.76;100.00;98241.22;5053168;28;20091;-78
2023/01/16 05:08:15;;;;;;;2.15;1.35;;;;;;;0.82;100.00;98243.28;5058343;28;20040;-77
2023/01/16 05:10:46;;;;;;;1.27;1.13;;;;;;;0.86;100.00;98248.06;5053328;28;20028;-78
2023/01/16 05:13:15;;;;;;;3.63;1.00;;;;;;;0.91;100.00;98247.66;5051960;28;20033;-78
2023/01/16 05:15:45;;;;;;;2.65;0.85;;;;;;;0.93;100.00;98252.72;5042596;28;20032;-77
2023/01/16 05:18:15;;;;;;;1.08;0.88;;;;;;;0.92;100.00;98244.13;5042987;28;20042;-77
2023/01/16 05:20:43;;;;;;;2.05;1.00;;;;;;;0.89;100.00;98240.97;5036393;28;20039;-78
2023/01/16 05:23:10;;;;;;;3.75;1.30;;;;;;;0.90;100.00;98245.19;5057836;28;20041;-77
2023/01/16 05:25:39;;;;;;;2.90;1.50;;;;;;;0.85;100.00;98243.84;5061960;28;20035;-77
2023/01/16 05:28:08;;;;;;;8.07;1.40;;;;;;;0.88;100.00;98245.31;5067151;28;20062;-77
2023/01/16 05:30:36;;;;;;;5.55;1.17;;;;;;;0.85;100.00;98248.19;5049048;28;20047;-77
2023/01/16 05:33:06;;;;;;;2.70;1.15;;;;;;;0.87;100.00;98248.91;5054473;28;20366;-77
2023/01/16 05:35:34;;;;;;;3.45;1.52;;;;;;;0.86;100.00;98247.25;5060284;28;20043;-77
2023/01/16 05:38:02;;;;;;;1.17;1.00;;;;;;;0.90;100.00;98253.00;5050915;28;20422;-76
2023/01/16 05:40:30;;;;;;;1.88;1.13;;;;;;;0.88;100.00;98258.34;5048414;28;20166;-77
2023/01/16 05:42:59;;;;;;;4.65;0.88;;;;;;;0.92;100.00;98254.53;5065557;28;20036;-77
2023/01/16 05:45:26;;;;;;;3.95;1.40;;;;;;;0.92;100.00;98256.28;5079200;28;20134;-76
2023/01/16 05:47:54;;;;;;;4.35;2.00;;;;;;;0.96;100.00;98257.66;5052474;28;20401;-76
2023/01/16 05:50:22;;;;;;;4.75;1.17;;;;;;;0.98;100.00;98261.78;5045551;28;20044;-77
2023/01/16 05:52:50;;;;;;;3.92;1.05;;;;;;;0.98;100.00;98258.34;5057767;28;20389;-77
2023/01/16 05:55:18;;;;;;;4.93;1.50;;;;;;;0.95;100.00;98262.06;5048568;28;20044;-77
2023/01/16 05:57:47;;;;;;;4.97;1.17;;;;;;;0.97;100.00;98272.31;5051062;28;20032;-77
2023/01/16 06:00:18;;;;;;;5.25;1.20;;;;;;;0.96;100.00;98273.25;5064331;28;20033;-79
2023/01/16 06:02:47;;;;;;;1.75;0.93;;;;;;;0.94;100.00;98272.59;5062385;28;20037;-77
2023/01/16 06:05:15;;;;;;;2.65;1.35;;;;;;;0.91;100.00;98273.66;5038212;28;20112;-77
2023/01/16 06:07:44;;;;;;;2.33;1.02;;;;;;;0.94;100.00;98273.38;5066854;28;20108;-77
2023/01/16 06:10:12;;;;;;;1.80;1.10;;;;;;;0.97;100.00;98275.72;5052500;28;20104;-78
2023/01/16 06:12:39;;;;;;;3.53;1.02;;;;;;;0.97;100.00;98277.53;5073101;28;20024;-77
2023/01/16 06:15:08;;;;;;;2.97;0.88;;;;;;;0.95;100.00;98269.03;5046762;28;20115;-77
2023/01/16 06:17:37;;;;;;;2.50;0.98;;;;;;;0.91;100.00;98278.06;5050895;28;20792;-77
2023/01/16 06:20:09;;;;;;;2.47;0.85;;;;;;;0.85;100.00;98276.81;5048380;28;20033;-77
2023/01/16 06:22:38;;;;;;;2.28;0.95;;;;;;;0.83;100.00;98281.31;5004512;28;20049;-77
2023/01/16 06:25:06;;;;;;;4.00;1.17;;;;;;;0.81;100.00;98286.66;5014815;28;20031;-76
2023/01/16 06:27:34;;;;;;;2.58;1.00;;;;;;;0.80;100.00;98287.63;5036160;28;20029;-76
2023/01/16 06:30:01;;;;;;;4.63;1.25;;;;;;;0.78;100.00;98286.94;5020068;28;20512;-77
2023/01/16 06:32:31;;;;;;;3.53;0.82;;;;;;;0.76;100.00;98275.03;5028230;28;20047;-77
2023/01/16 06:35:00;;;;;;;2.95;1.05;;;;;;;0.73;100.00;98284.72;5044293;28;20580;-76
2023/01/16 06:37:28;;;;;;;4.68;0.90;;;;;;;0.69;100.00;98280.78;5060089;28;20033;-76
2023/01/16 06:39:59;;;;;;;3.00;1.10;;;;;;;0.70;100.00;98286.81;5043335;28;20481;-77
2023/01/16 06:42:29;;;;;;;5.15;1.13;;;;;;;0.73;100.00;98291.72;5043298;28;20104;-77
2023/01/16 06:44:59;;;;;;;5.97;1.35;;;;;;;0.69;100.00;98291.16;5024742;28;20045;-77
2023/01/16 06:47:30;;;;;;;1.98;0.73;;;;;;;0.69;100.00;98287.72;5023814;28;20359;-77
2023/01/16 06:50:00;;;;;;;4.15;1.10;;;;;;;0.65;100.00;98288.97;5036721;28;20043;-77
2023/01/16 06:52:29;;;;;;;1.90;0.85;;;;;;;0.61;100.00;98291.84;5021121;28;20028;-77
2023/01/16 06:54:57;;;;;;;4.30;0.98;;;;;;;0.56;100.00;98285.38;5022339;28;20029;-76
2023/01/16 06:57:26;;;;;;;3.83;0.93;;;;;;;0.54;100.00;98282.09;5049498;28;20124;-76
2023/01/16 06:59:53;;;;;;;5.57;1.23;;;;;;;0.53;100.00;98281.28;5042410;28;20033;-77
2023/01/16 07:02:23;;;;;;;3.03;1.00;;;;;;;0.55;100.00;98279.38;5044292;28;20033;-78
2023/01/16 07:04:52;;;;;;;4.28;1.10;;;;;;;0.57;100.00;98287.03;5028825;28;20124;-78
2023/01/16 07:07:20;;;;;;;2.67;0.80;;;;;;;0.56;100.00;98286.22;5057275;28;20124;-77
2023/01/16 07:09:47;;;;;;;6.60;0.77;;;;;;;0.56;100.00;98281.00;5043304;28;20026;-77
2023/01/16 07:12:15;;;;;;;3.40;0.82;;;;;;;0.57;100.00;98282.69;5024432;28;20091;-77
2023/01/16 07:23:26;;;;;;;10.05;3.83;;;;;;;0.48;100.00;98284.28;5043761;28;20040;-78
2023/01/16 07:25:58;;;;;;;2.72;0.98;;;;;;;0.41;100.00;98288.38;5040533;28;20052;-78
2023/01/16 07:28:29;;;;;;;2.50;0.95;;;;;;;0.39;100.00;98294.66;5033215;28;20041;-78
2023/01/16 07:30:59;;;;;;;2.88;0.80;;;;;;;0.37;100.00;98294.78;5028172;28;20036;-78
2023/01/16 07:33:29;;;;;;;3.90;1.10;;;;;;;0.39;100.00;98299.84;5033008;28;20028;-78
2023/01/16 07:35:57;;;;;;;4.38;0.82;;;;;;;0.38;100.00;98304.25;5011756;28;20032;-76
2023/01/16 07:38:25;;;;;;;3.65;0.98;;;;;;;0.35;100.00;98310.50;5040567;28;20150;-76
2023/01/16 07:40:53;;;;;;;4.90;0.77;;;;;;;0.39;100.00;98312.84;5039081;28;20032;-76
2023/01/16 07:43:20;;;;;;;5.70;0.90;;;;;;;0.35;100.00;98307.91;5011468;28;20049;-76
2023/01/16 07:45:52;;;;;;;2.75;0.90;;;;;;;0.31;100.00;98311.72;5022527;28;20087;-77
2023/01/16 07:48:21;;;;;;;2.35;0.65;;;;;;;0.27;100.00;98304.31;5022774;28;20389;-77
2023/01/16 07:50:56;;;;;;;1.75;0.68;;;;;;;0.21;100.00;98305.66;5023186;28;20539;-77
2023/01/16 07:53:26;;;;;;;6.25;0.75;;;;;;;0.15;100.00;98312.22;5024816;28;20044;-76
2023/01/16 07:55:56;;;;;;;5.85;0.88;;;;;;;0.11;100.00;98319.44;5040064;28;20108;-77
2023/01/16 07:58:24;;;;;;;3.88;1.05;;;;;;;0.06;100.00;98320.78;5009483;28;20037;-77
2023/01/16 08:00:54;;;;;;;9.57;1.10;;;;;;;0.04;100.00;98322.69;5042858;28;20083;-77
2023/01/16 08:03:23;;;;;;;7.35;1.50;;;;;;;-0.03;100.00;98322.38;5044959;28;20045;-77
2023/01/16 08:05:55;;;;;;;4.55;1.00;;;;;;;-0.03;100.00;98320.59;5025530;28;20407;-76
2023/01/16 08:08:25;;;;;;;4.13;1.13;;;;;;;-0.08;100.00;98320.16;5021490;28;20059;-76
2023/01/16 08:11:34;;;;;;;7.18;1.10;;;;;;;-0.11;100.00;98315.22;4994886;28;20041;-77
2023/01/16 08:13:49;;;;;;;3.05;1.10;;;;;;;-0.18;100.00;98312.34;5041733;28;20116;-77
2023/01/16 08:16:19;;;;;;;7.50;1.08;;;;;;;-0.18;100.00;98319.28;5029122;28;20511;-77
2023/01/16 08:18:48;;;;;;;2.72;0.85;;;;;;;-0.20;100.00;98316.00;5045255;28;20400;-77
2023/01/16 08:21:16;;;;;;;3.00;1.02;;;;;;;-0.20;100.00;98311.63;5039419;28;20047;-77
2023/01/16 08:23:44;;;;;;;3.85;0.95;;;;;;;-0.22;100.00;98312.72;5048041;28;20504;-77
2023/01/16 08:26:13;;;;;;;9.07;1.52;;;;;;;-0.21;100.00;98317.78;5065126;28;20035;-77
2023/01/16 08:28:41;;;;;;;4.85;1.02;;;;;;;-0.21;100.00;98314.34;5050637;28;20039;-77
2023/01/16 08:31:13;;;;;;;5.82;1.17;;;;;;;-0.22;100.00;98318.72;5055063;28;20475;-77
2023/01/16 08:33:42;;;;;;;2.33;0.70;;;;;;;-0.22;100.00;98317.91;5046217;28;20044;-77
2023/01/16 08:36:12;;;;;;;2.20;0.80;;;;;;;-0.25;100.00;98313.78;5052683;28;20337;-77
2023/01/16 08:38:40;;;;;;;6.10;0.93;;;;;;;-0.28;100.00;98324.44;5038927;28;20037;-77
2023/01/16 08:52:24;;;;;;;5.63;1.08;;;;;;;-0.34;100.00;98333.56;5070499;28;20032;-77
2023/01/16 08:54:54;;;;;;;10.43;1.17;;;;;;;-0.33;100.00;98335.19;5053310;28;20024;-77
2023/01/16 08:57:22;;;;;;;7.00;1.88;;;;;;;-0.35;100.00;98342.28;5052416;28;20492;-77
2023/01/16 08:59:50;;;;;;;3.90;1.08;;;;;;;-0.40;100.00;98342.66;5065628;28;20033;-77
2023/01/16 09:02:19;;;;;;;4.45;1.13;;;;;;;-0.40;100.00;98345.25;5059146;28;20036;-77
2023/01/16 09:04:48;;;;;;;3.25;0.77;;;;;;;-0.41;100.00;98351.41;5050039;28;20094;-77
2023/01/16 09:07:16;;;;;;;4.88;0.90;;;;;;;-0.40;100.00;98347.03;5073970;28;20059;-77
2023/01/16 09:09:44;;;;;;;5.18;0.77;;;;;;;-0.44;100.00;98346.47;5036093;28;20025;-77
2023/01/16 09:15:05;;;;;;;3.05;0.88;;;;;;;-0.39;100.00;98362.50;4994249;28;20047;-77
2023/01/16 09:17:34;;;;;;;2.95;0.80;;;;;;;-0.33;100.00;98360.31;5035705;28;20049;-77
2023/01/16 09:20:05;;;;;;;5.15;0.68;;;;;;;-0.32;100.00;98364.59;5033919;28;20033;-77
2023/01/16 09:22:35;;;;;;;5.78;0.80;;;;;;;-0.35;100.00;98368.22;5041307;28;20502;-77
2023/01/16 09:25:04;;;;;;;6.25;0.85;;;;;;;-0.36;100.00;98352.78;5020644;28;20033;-77
2023/01/16 09:27:32;;;;;;;4.47;0.77;;;;;;;-0.40;100.00;98353.03;5052978;28;20045;-77
2023/01/16 09:30:02;;;;;;;3.78;0.85;;;;;;;-0.38;100.00;98358.09;5015713;28;20041;-77
2023/01/16 09:32:33;;;;;;;4.97;0.70;;;;;;;-0.37;100.00;98341.59;5024145;28;20037;-77
2023/01/16 09:35:03;;;;;;;6.75;0.50;;;;;;;-0.31;100.00;98342.84;5048460;28;20022;-77
2023/01/16 09:37:33;;;;;;;7.68;0.80;;;;;;;-0.23;100.00;98339.63;5035896;28;20045;-77
2023/01/16 09:40:03;;;;;;;5.10;1.02;;;;;;;-0.17;100.00;98334.75;5010434;28;20033;-77
2023/01/16 09:45:49;;;;;;;6.05;0.60;;;;;;;-0.06;100.00;98339.03;5027458;28;20047;-77
2023/01/16 09:48:29;;;;;;;3.30;1.08;;;;;;;-0.01;100.00;98338.66;5038758;28;20112;-77
2023/01/16 09:51:11;;;;;;;10.48;3.70;;;;;;;0.06;100.00;98336.38;5039771;28;20025;-76
2023/01/16 09:59:37;;;;;;;3.80;0.63;;;;;;;0.23;100.00;98346.16;5029945;28;20115;-77
2023/01/16 10:02:09;;;;;;;3.38;0.85;;;;;;;0.29;100.00;98339.63;5009147;28;20139;-76
2023/01/16 10:04:39;;;;;;;6.10;0.60;;;;;;;0.35;100.00;98341.69;5028795;28;20033;-76
2023/01/16 10:07:18;;;;;;;5.40;1.02;;;;;;;0.46;100.00;98352.97;5016689;28;20040;-77
2023/01/16 10:10:20;;;;;;;7.32;1.40;;;;;;;0.54;100.00;98345.31;5045185;28;20037;-77
2023/01/16 10:13:15;;;;;;;3.20;0.85;;;;;;;0.58;100.00;98349.31;5053730;28;20436;-77
2023/01/16 10:15:55;;;;;;;4.88;1.17;;;;;;;0.66;100.00;98353.00;5039502;28;20026;-77
2023/01/16 10:18:41;;;;;;;4.75;1.08;;;;;;;0.72;100.00;98355.06;5055603;28;20412;-77
2023/01/16 10:21:43;;;;;;;5.45;0.68;;;;;;;0.82;100.00;98362.91;5064658;28;20032;-77
2023/01/16 10:24:38;;;;;;;10.75;0.98;;;;;;;0.93;100.00;98365.41;5024721;28;20037;-77
2023/01/16 10:27:20;;;;;;;9.00;0.93;;;;;;;1.03;100.00;98357.63;5050491;28;20115;-77
2023/01/16 10:30:25;;;;;;;5.40;1.30;;;;;;;1.11;100.00;98369.97;5048884;28;20037;-77
2023/01/16 10:33:05;;;;;;;3.13;0.57;;;;;;;1.19;100.00;98369.28;5047205;28;20064;-77
2023/01/16 10:35:39;;;;;;;4.97;0.88;;;;;;;1.21;100.00;98360.38;5045413;28;20442;-77
2023/01/16 10:38:45;;;;;;;3.20;0.50;;;;;;;1.29;100.00;98362.28;5043175;28;20127;-77
2023/01/16 10:49:25;;;;;;;4.53;1.05;;;;;;;1.35;100.00;98351.31;5053731;28;20485;-77
2023/01/16 10:50:03;;;;;;;4.85;1.33;;;;;;;1.47;100.00;98343.38;5060258;28;20056;-77
2023/01/16 10:52:32;;;;;;;7.65;1.25;;;;;;;1.50;100.00;98352.72;5046536;28;20080;-77
2023/01/16 10:55:03;;;;;;;3.60;0.75;;;;;;;1.50;100.00;98347.50;5056182;28;20107;-77
2023/01/16 10:57:31;;;;;;;5.60;1.17;;;;;;;1.47;100.00;98352.03;5058295;28;20130;-77
2023/01/16 11:00:14;;;;;;;7.13;0.90;;;;;;;1.53;100.00;98342.81;5074057;28;20397;-77
2023/01/16 11:02:48;;;;;;;2.97;0.70;;;;;;;1.62;100.00;98346.41;5052647;28;20484;-77
2023/01/16 11:05:32;;;;;;;7.53;1.10;;;;;;;1.67;100.00;98343.38;5051947;28;20051;-78
2023/01/16 11:08:27;;;;;;;8.77;1.45;;;;;;;1.66;100.00;98332.13;5050558;28;20146;-77
2023/01/16 11:10:56;;;;;;;3.38;0.85;;;;;;;1.78;100.00;98338.03;5049261;28;20396;-77
2023/01/16 11:19:21;;;;;;;4.95;1.20;;;;;;;2.06;100.00;98335.47;5048821;28;20044;-78
2023/01/16 11:22:07;;;;;;;3.78;0.50;;;;;;;2.15;100.00;98336.41;5034335;28;20040;-77
2023/01/16 11:24:40;;;;;;;2.60;1.25;;;;;;;2.22;100.00;98328.84;5064591;28;20599;-77
2023/01/16 11:27:26;;;;;;;1.30;0.32;;;;;;;2.35;100.00;98320.69;5042026;28;20036;-77
2023/01/16 11:29:57;;;;;;;2.23;0.90;;;;;;;2.39;100.00;98316.81;5059586;28;20033;-77
2023/01/16 11:32:28;;;;;;;2.58;0.63;;;;;;;2.48;100.00;98313.34;5055736;28;20058;-77
2023/01/16 11:34:58;;;;;;;5.50;0.77;;;;;;;2.50;100.00;98309.78;5071076;28;20150;-77
2023/01/16 11:37:29;;;;;;;10.00;1.05;;;;;;;2.55;100.00;98300.56;5057322;28;20036;-77
2023/01/16 11:40:05;;;;;;;5.50;1.10;;;;;;;2.58;100.00;98305.47;5063473;28;20036;-78
2023/01/16 11:48:24;;;;;;;5.55;0.80;;;;;;;2.57;100.00;98290.81;5057350;28;20043;-77
2023/01/16 11:50:58;;;;;;;3.25;0.60;;;;;;;2.61;100.00;98291.34;5053889;28;20025;-77
2023/01/16 11:53:33;;;;;;;1.45;0.38;;;;;;;2.60;100.00;98292.28;5054668;28;20025;-77
2023/01/16 11:56:10;;;;;;;7.47;0.63;;;;;;;2.57;100.00;98287.38;5065309;28;20043;-76
2023/01/16 11:59:11;;;;;;;4.78;0.60;;;;;;;2.64;100.00;98282.38;5037935;28;20054;-76
2023/01/16 12:04:31;;;;;;;2.70;0.45;;;;;;;2.69;100.00;98262.72;5072561;28;20037;-77
2023/01/16 12:07:24;;;;;;;4.35;0.75;;;;;;;2.69;100.00;98267.13;5078659;28;20438;-78
2023/01/16 12:10:25;;;;;;;3.10;0.43;;;;;;;2.62;100.00;98256.44;5035001;28;20392;-78
2023/01/16 12:16:01;;;;;;;7.63;0.50;;;;;;;2.58;100.00;98249.91;5059202;28;20028;-77
2023/01/16 12:18:33;;;;;;;1.20;0.32;;;;;;;2.64;100.00;98254.53;5031041;28;20055;-78
2023/01/16 12:21:18;;;;;;;3.20;0.40;;;;;;;2.73;100.00;98243.19;5036289;28;20036;-77
2023/01/16 12:24:09;;;;;;;4.70;0.82;;;;;;;2.75;100.00;98229.19;5051856;28;20031;-78
2023/01/16 12:27:13;;;;;;;1.83;0.40;;;;;;;2.77;100.00;98222.03;5006046;28;20065;-78
2023/01/16 12:30:13;;;;;;;2.72;0.60;;;;;;;2.76;100.00;98217.75;5074534;28;20038;-78
2023/01/16 12:32:58;;;;;;;2.65;0.50;;;;;;;2.69;100.00;98213.16;5026693;28;20076;-77
2023/01/16 12:35:36;;;;;;;2.83;0.70;;;;;;;2.66;100.00;98212.66;5049919;28;20493;-77
2023/01/16 12:38:16;;;;;;;6.05;0.50;;;;;;;2.63;100.00;98211.13;5056587;28;20036;-77
2023/01/16 12:43:17;;;;;;;4.07;0.38;;;;;;;2.64;100.00;98206.75;5027677;28;20405;-78
2023/01/16 12:44:03;;;;;;;2.67;0.20;;;;;;;2.75;100.00;98201.31;5051199;28;20040;-78
2023/01/16 12:46:52;;;;;;;5.47;0.52;;;;;;;2.89;100.00;98199.13;5057387;28;20068;-78
2023/01/16 12:49:48;;;;;;;3.13;0.40;;;;;;;2.95;100.00;98194.13;5045515;28;20087;-78
2023/01/16 12:52:38;;;;;;;3.88;0.63;;;;;;;3.07;100.00;98186.88;5047883;28;20745;-78
2023/01/16 12:55:39;;;;;;;1.48;0.20;;;;;;;3.01;100.00;98190.09;5039124;28;20483;-78
2023/01/16 12:58:26;;;;;;;3.53;0.60;;;;;;;3.15;100.00;98180.91;5022436;28;20048;-78
2023/01/16 13:01:24;;;;;;;2.97;0.30;;;;;;;3.05;100.00;98186.22;5075258;28;20070;-79
2023/01/16 13:03:58;;;;;;;4.05;0.50;;;;;;;2.99;100.00;98186.84;5044870;28;20040;-78